Superferry II — SWKV — position and weather

sailwx.info

Track history (hours):
 
Tides and Currents Weather Stations Pressure Air Temp Water Temp Dewpoint Dewpoint Depression Visibility Wind Speed Wind Dir Waves Ship Positions

Superferry II

Last reported at 2016-May-04 09:33 UTC. Time now 2016-May-04 09:50 UTC.
Position N 37°28' E 025°19'.

Length 122 m; draft 4.7 m.

Type: Passenger vessel. MMSI: 237001000.

Date/timePositionNaut miles runAvg speedWind from/ knotsBaromVisibWave heightAir tempDewpointWater temp
2016-May-04 09:33N 37°28' E 025°19'10 9.6
2016-May-04 08:34N 37°32' E 025°09'5216.5
2016-May-04 05:23N 37°59' E 024°11'9 1.1
2016-May-03 21:31N 38°01' E 024°01'3511.8
2016-May-03 18:33N 37°52' E 024°44'1918.8
2016-May-03 17:33N 37°57' E 024°20'1611.6
2016-May-03 16:10N 38°01' E 024°01'1016.5
2016-May-03 15:33N 37°58' E 024°13'4413.7
2016-May-03 12:20N 37°36' E 025°01'810.3
2016-May-03 11:33N 37°32' E 025°10'9 8.7
2016-May-03 10:32N 37°28' E 025°19'1 1.5
2016-May-03 09:33N 37°28' E 025°18'1110.6
2016-May-03 08:31N 37°33' E 025°06'4715.9
2016-May-03 05:33N 37°58' E 024°15'12 2.3
2016-May-03 00:24N 38°01' E 024°01'2 0.6
2016-May-02 20:33N 38°01' E 024°03'1919.2
2016-May-02 19:33N 37°55' E 024°27'1410.9
2016-May-02 18:17N 37°53' E 024°44'1216.8
2016-May-02 17:33N 37°55' E 024°29'1818.5
2016-May-02 16:33N 38°00' E 024°06'4 4.4
2016-May-02 15:33N 38°01' E 024°01'1918.8
2016-May-02 14:33N 37°56' E 024°23'3414.0
2016-May-02 12:09N 37°38' E 024°59'1016.6
2016-May-02 11:33N 37°32' E 025°09'9 9.1
2016-May-02 10:33N 37°28' E 025°19'0 0.0
2016-May-02 09:33N 37°28' E 025°19'1111.1
2016-May-02 08:33N 37°33' E 025°07'4915.9
2016-May-02 05:29N 37°58' E 024°14'11 0.3
2016-Apr-30 15:28N 38°01' E 024°01'5015.9
2016-Apr-30 12:18N 37°39' E 024°58'1115.0
2016-Apr-30 11:34N 37°32' E 025°09'9 9.1
2016-Apr-30 10:33N 37°28' E 025°19'4 3.7
2016-Apr-30 09:30N 37°29' E 025°15'9 9.3
2016-Apr-30 08:33N 37°34' E 025°05'4815.7
2016-Apr-30 05:32N 37°58' E 024°14'11 0.8
2016-Apr-29 15:24N 38°01' E 024°01'6116.0
2016-Apr-29 11:33N 37°32' E 025°09'9 9.2
2016-Apr-29 10:33N 37°28' E 025°19'8 7.9
2016-Apr-29 09:33N 37°31' E 025°10'1813.4
2016-Apr-29 08:10N 37°43' E 024°53'1210.8
2016-Apr-29 07:03N 37°52' E 024°42'2818.7
2016-Apr-29 05:33N 37°59' E 024°08'6 6.0
2016-Apr-29 04:32N 38°01' E 024°01'0 0.0
2016-Apr-29 03:33N 38°01' E 024°01'0 0.0
2016-Apr-29 02:33N 38°01' E 024°01'0 0.0
2016-Apr-29 01:33N 38°01' E 024°01'0 0.0
2016-Apr-29 00:33N 38°01' E 024°01'1212.3
2016-Apr-28 23:33N 37°57' E 024°15'1818.2
2016-Apr-28 22:33N 37°48' E 024°35'1818.5
2016-Apr-28 21:33N 37°38' E 024°55'1818.4
2016-Apr-28 20:33N 37°29' E 025°15'6 5.6
2016-Apr-28 19:34N 37°32' E 025°09'1211.6
2016-Apr-28 18:33N 37°39' E 024°57'1815.5
2016-Apr-28 17:25N 37°53' E 024°44'1314.0
2016-Apr-28 16:29N 37°55' E 024°28'1718.7
2016-Apr-28 15:33N 37°60' E 024°07'1 0.7
2016-Apr-28 13:33N 37°59' E 024°08'4519.5
2016-Apr-28 11:15N 37°37' E 024°58'1319.5
2016-Apr-28 10:33N 37°30' E 025°12'1 0.8
2016-Apr-28 09:33N 37°30' E 025°13'5814.4
2016-Apr-28 05:33N 37°59' E 024°10'8 1.0
2016-Apr-27 21:29N 38°01' E 024°01'2 1.9
2016-Apr-27 20:33N 38°01' E 024°03'1818.4
2016-Apr-27 19:33N 37°56' E 024°25'1514.6
2016-Apr-27 18:31N 37°53' E 024°44'1111.8
2016-Apr-27 17:33N 37°55' E 024°30'1919.3
2016-Apr-27 16:33N 38°00' E 024°06'5 4.2
2016-Apr-27 15:28N 38°01' E 024°01'6215.6
2016-Apr-27 11:31N 37°32' E 025°09'9 9.4
2016-Apr-27 10:33N 37°28' E 025°19'7 6.7
2016-Apr-27 09:33N 37°31' E 025°12'5914.6
2016-Apr-27 05:32N 37°60' E 024°07'5 2.6
2016-Apr-27 03:33N 38°01' E 024°01'0 0.0
2016-Apr-27 02:33N 38°01' E 024°01'0 0.0
2016-Apr-27 01:33N 38°01' E 024°01'0 0.0
2016-Apr-27 00:33N 38°01' E 024°01'0 0.0
2016-Apr-26 23:33N 38°01' E 024°01'0 0.0
2016-Apr-26 22:33N 38°01' E 024°01'0 0.0
2016-Apr-26 21:33N 38°01' E 024°01'0 0.1
2016-Apr-26 20:33N 38°01' E 024°01'1817.8
2016-Apr-26 19:33N 37°56' E 024°22'1712.6
2016-Apr-26 18:12N 37°52' E 024°44'1218.2
2016-Apr-26 17:33N 37°55' E 024°29'1818.5
2016-Apr-26 16:33N 37°60' E 024°06'4 3.9
2016-Apr-26 15:25N 38°01' E 024°01'5316.2
2016-Apr-26 12:07N 37°37' E 025°01'814.1
2016-Apr-26 11:33N 37°32' E 025°09'9 9.1
2016-Apr-26 10:33N 37°28' E 025°19'3 3.2
2016-Apr-26 09:30N 37°29' E 025°15'5814.7
2016-Apr-26 05:33N 37°59' E 024°12'10 4.5
2016-Apr-26 03:24N 38°01' E 024°01'0 0.0
2016-Apr-26 02:33N 38°01' E 024°01'0 0.0
2016-Apr-26 01:33N 38°01' E 024°01'0 0.0
2016-Apr-26 00:33N 38°01' E 024°01'0 0.0
2016-Apr-25 23:33N 38°01' E 024°01'0 0.0
2016-Apr-25 22:31N 38°01' E 024°01'0 0.0
2016-Apr-25 21:33N 38°01' E 024°01'0 0.0
2016-Apr-25 20:33N 38°01' E 024°01'0 0.0
2016-Apr-25 19:32N 38°01' E 024°01'0 0.0
2016-Apr-25 18:30N 38°01' E 024°01'0 0.0
2016-Apr-25 17:30N 38°01' E 024°01'1 0.3
2016-Apr-25 15:27N 38°01' E 024°01'5315.9
2016-Apr-25 12:09N 37°37' E 025°01'814.3
2016-Apr-25 11:34N 37°32' E 025°09'9 9.1
2016-Apr-25 10:33N 37°28' E 025°19'0 0.0
2016-Apr-25 09:33N 37°28' E 025°19'1111.4
2016-Apr-25 08:33N 37°33' E 025°07'4916.1
2016-Apr-25 05:32N 37°58' E 024°14'11 5.5
2016-Apr-25 03:33N 38°01' E 024°01'0 0.0
2016-Apr-25 02:33N 38°01' E 024°01'0 0.0
2016-Apr-25 01:33N 38°01' E 024°01'0 0.0
2016-Apr-25 00:33N 38°01' E 024°01'0 0.0
2016-Apr-24 23:33N 38°01' E 024°01'0 0.0
2016-Apr-24 22:33N 38°01' E 024°01'0 0.0
2016-Apr-24 21:33N 38°01' E 024°01'0 0.1
2016-Apr-24 20:33N 38°01' E 024°01'1716.9
2016-Apr-24 19:33N 37°56' E 024°21'1817.7
2016-Apr-24 18:32N 37°53' E 024°44'1211.6
2016-Apr-24 17:31N 37°55' E 024°29'1819.2
2016-Apr-24 16:33N 37°60' E 024°07'4 3.3
2016-Apr-24 15:24N 38°01' E 024°02'5115.8
2016-Apr-24 12:08N 37°37' E 024°60'915.8
2016-Apr-24 11:33N 37°32' E 025°09'9 9.1
2016-Apr-24 10:33N 37°28' E 025°19'  
Track history (hours):
 
Tides and Currents Weather Stations Pressure Air Temp Water Temp Dewpoint Dewpoint Depression Visibility Wind Speed Wind Dir Waves Ship Positions

Superferry II

Last reported at 2016-May-04 09:33 UTC. Time now 2016-May-04 09:50 UTC.
Position N 37°28' E 025°19'.

Length 122 m; draft 4.7 m.

Type: Passenger vessel. MMSI: 237001000.

Date/timePositionNaut miles runAvg speedWind from/ knotsBaromVisibWave heightAir tempDewpointWater temp
2016-May-04 09:33N 37°28' E 025°19'10 9.6
2016-May-04 08:34N 37°32' E 025°09'5216.5
2016-May-04 05:23N 37°59' E 024°11'9 1.1
2016-May-03 21:31N 38°01' E 024°01'3511.8
2016-May-03 18:33N 37°52' E 024°44'1918.8
2016-May-03 17:33N 37°57' E 024°20'1611.6
2016-May-03 16:10N 38°01' E 024°01'1016.5
2016-May-03 15:33N 37°58' E 024°13'4413.7
2016-May-03 12:20N 37°36' E 025°01'810.3
2016-May-03 11:33N 37°32' E 025°10'9 8.7
2016-May-03 10:32N 37°28' E 025°19'1 1.5
2016-May-03 09:33N 37°28' E 025°18'1110.6
2016-May-03 08:31N 37°33' E 025°06'4715.9
2016-May-03 05:33N 37°58' E 024°15'12 2.3
2016-May-03 00:24N 38°01' E 024°01'2 0.6
2016-May-02 20:33N 38°01' E 024°03'1919.2
2016-May-02 19:33N 37°55' E 024°27'1410.9
2016-May-02 18:17N 37°53' E 024°44'1216.8
2016-May-02 17:33N 37°55' E 024°29'1818.5
2016-May-02 16:33N 38°00' E 024°06'4 4.4
2016-May-02 15:33N 38°01' E 024°01'1918.8
2016-May-02 14:33N 37°56' E 024°23'3414.0
2016-May-02 12:09N 37°38' E 024°59'1016.6
2016-May-02 11:33N 37°32' E 025°09'9 9.1
2016-May-02 10:33N 37°28' E 025°19'0 0.0
2016-May-02 09:33N 37°28' E 025°19'1111.1
2016-May-02 08:33N 37°33' E 025°07'4915.9
2016-May-02 05:29N 37°58' E 024°14'11 0.3
2016-Apr-30 15:28N 38°01' E 024°01'5015.9
2016-Apr-30 12:18N 37°39' E 024°58'1115.0
2016-Apr-30 11:34N 37°32' E 025°09'9 9.1
2016-Apr-30 10:33N 37°28' E 025°19'4 3.7
2016-Apr-30 09:30N 37°29' E 025°15'9 9.3
2016-Apr-30 08:33N 37°34' E 025°05'4815.7
2016-Apr-30 05:32N 37°58' E 024°14'11 0.8
2016-Apr-29 15:24N 38°01' E 024°01'6116.0
2016-Apr-29 11:33N 37°32' E 025°09'9 9.2
2016-Apr-29 10:33N 37°28' E 025°19'8 7.9
2016-Apr-29 09:33N 37°31' E 025°10'1813.4
2016-Apr-29 08:10N 37°43' E 024°53'1210.8
2016-Apr-29 07:03N 37°52' E 024°42'2818.7
2016-Apr-29 05:33N 37°59' E 024°08'6 6.0
2016-Apr-29 04:32N 38°01' E 024°01'0 0.0
2016-Apr-29 03:33N 38°01' E 024°01'0 0.0
2016-Apr-29 02:33N 38°01' E 024°01'0 0.0
2016-Apr-29 01:33N 38°01' E 024°01'0 0.0
2016-Apr-29 00:33N 38°01' E 024°01'1212.3
2016-Apr-28 23:33N 37°57' E 024°15'1818.2
2016-Apr-28 22:33N 37°48' E 024°35'1818.5
2016-Apr-28 21:33N 37°38' E 024°55'1818.4
2016-Apr-28 20:33N 37°29' E 025°15'6 5.6
2016-Apr-28 19:34N 37°32' E 025°09'1211.6
2016-Apr-28 18:33N 37°39' E 024°57'1815.5
2016-Apr-28 17:25N 37°53' E 024°44'1314.0
2016-Apr-28 16:29N 37°55' E 024°28'1718.7
2016-Apr-28 15:33N 37°60' E 024°07'1 0.7
2016-Apr-28 13:33N 37°59' E 024°08'4519.5
2016-Apr-28 11:15N 37°37' E 024°58'1319.5
2016-Apr-28 10:33N 37°30' E 025°12'1 0.8
2016-Apr-28 09:33N 37°30' E 025°13'5814.4
2016-Apr-28 05:33N 37°59' E 024°10'8 1.0
2016-Apr-27 21:29N 38°01' E 024°01'2 1.9
2016-Apr-27 20:33N 38°01' E 024°03'1818.4
2016-Apr-27 19:33N 37°56' E 024°25'1514.6
2016-Apr-27 18:31N 37°53' E 024°44'1111.8
2016-Apr-27 17:33N 37°55' E 024°30'1919.3
2016-Apr-27 16:33N 38°00' E 024°06'5 4.2
2016-Apr-27 15:28N 38°01' E 024°01'6215.6
2016-Apr-27 11:31N 37°32' E 025°09'9 9.4
2016-Apr-27 10:33N 37°28' E 025°19'7 6.7
2016-Apr-27 09:33N 37°31' E 025°12'5914.6
2016-Apr-27 05:32N 37°60' E 024°07'5 2.6
2016-Apr-27 03:33N 38°01' E 024°01'0 0.0
2016-Apr-27 02:33N 38°01' E 024°01'0 0.0
2016-Apr-27 01:33N 38°01' E 024°01'0 0.0
2016-Apr-27 00:33N 38°01' E 024°01'0 0.0
2016-Apr-26 23:33N 38°01' E 024°01'0 0.0
2016-Apr-26 22:33N 38°01' E 024°01'0 0.0
2016-Apr-26 21:33N 38°01' E 024°01'0 0.1
2016-Apr-26 20:33N 38°01' E 024°01'1817.8
2016-Apr-26 19:33N 37°56' E 024°22'1712.6
2016-Apr-26 18:12N 37°52' E 024°44'1218.2
2016-Apr-26 17:33N 37°55' E 024°29'1818.5
2016-Apr-26 16:33N 37°60' E 024°06'4 3.9
2016-Apr-26 15:25N 38°01' E 024°01'5316.2
2016-Apr-26 12:07N 37°37' E 025°01'814.1
2016-Apr-26 11:33N 37°32' E 025°09'9 9.1
2016-Apr-26 10:33N 37°28' E 025°19'3 3.2
2016-Apr-26 09:30N 37°29' E 025°15'5814.7
2016-Apr-26 05:33N 37°59' E 024°12'10 4.5
2016-Apr-26 03:24N 38°01' E 024°01'0 0.0
2016-Apr-26 02:33N 38°01' E 024°01'0 0.0
2016-Apr-26 01:33N 38°01' E 024°01'0 0.0
2016-Apr-26 00:33N 38°01' E 024°01'0 0.0
2016-Apr-25 23:33N 38°01' E 024°01'0 0.0
2016-Apr-25 22:31N 38°01' E 024°01'0 0.0
2016-Apr-25 21:33N 38°01' E 024°01'0 0.0
2016-Apr-25 20:33N 38°01' E 024°01'0 0.0
2016-Apr-25 19:32N 38°01' E 024°01'0 0.0
2016-Apr-25 18:30N 38°01' E 024°01'0 0.0
2016-Apr-25 17:30N 38°01' E 024°01'1 0.3
2016-Apr-25 15:27N 38°01' E 024°01'5315.9
2016-Apr-25 12:09N 37°37' E 025°01'814.3
2016-Apr-25 11:34N 37°32' E 025°09'9 9.1
2016-Apr-25 10:33N 37°28' E 025°19'0 0.0
2016-Apr-25 09:33N 37°28' E 025°19'1111.4
2016-Apr-25 08:33N 37°33' E 025°07'4916.1
2016-Apr-25 05:32N 37°58' E 024°14'11 5.5
2016-Apr-25 03:33N 38°01' E 024°01'0 0.0
2016-Apr-25 02:33N 38°01' E 024°01'0 0.0
2016-Apr-25 01:33N 38°01' E 024°01'0 0.0
2016-Apr-25 00:33N 38°01' E 024°01'0 0.0
2016-Apr-24 23:33N 38°01' E 024°01'0 0.0
2016-Apr-24 22:33N 38°01' E 024°01'0 0.0
2016-Apr-24 21:33N 38°01' E 024°01'0 0.1
2016-Apr-24 20:33N 38°01' E 024°01'1716.9
2016-Apr-24 19:33N 37°56' E 024°21'1817.7
2016-Apr-24 18:32N 37°53' E 024°44'1211.6
2016-Apr-24 17:31N 37°55' E 024°29'1819.2
2016-Apr-24 16:33N 37°60' E 024°07'4 3.3
2016-Apr-24 15:24N 38°01' E 024°02'5115.8
2016-Apr-24 12:08N 37°37' E 024°60'915.8
2016-Apr-24 11:33N 37°32' E 025°09'9 9.1
2016-Apr-24 10:33N 37°28' E 025°19'  

Dump ship's entire track history